CheckWX is a tool to help pilots better visualize weather data.  It is not intended as a substitute for an official pre-flight weather briefing.

01:03:01 UTC

2C8 METAR
Cavalier Municipal Airport
Cavalier, North Dakota, USA
Current

8 mins ago

K2C8 210055Z AUTO 03003KT 10SM CLR 14/02 A2979 RMK AO2
Observed
Apr-21 @ 00:55 UTC
Wind
  • 030° at 3 KTS
Visibility
10 SM
Flight Rules
VFR
Cloud Levels
  • Clear skies
Temperature
14°C / 57°F
Dewpoint
C / 36°F
Humidity
44%
Altimeter
29.79" Hg
Pressure
1008.82 hPa
Previous

28 mins ago

K2C8 210035Z AUTO 03003KT 10SM CLR 15/02 A2979 RMK AO2
Observed
Apr-21 @ 00:35 UTC
Wind
  • 030° at 3 KTS
Visibility
10 SM
Flight Rules
VFR
Cloud Levels
  • Clear skies
Temperature
15°C / 59°F
Dewpoint
C / 36°F
Humidity
42%
Altimeter
29.79" Hg
Pressure
1008.82 hPa
Previous

48 mins ago

K2C8 210015Z AUTO 04005KT 10SM CLR 15/02 A2978 RMK AO2
Observed
Apr-21 @ 00:15 UTC
Wind
  • 040° at 5 KTS
Visibility
10 SM
Flight Rules
VFR
Cloud Levels
  • Clear skies
Temperature
15°C / 59°F
Dewpoint
C / 36°F
Humidity
42%
Altimeter
29.78" Hg
Pressure
1008.42 hPa